sensor_id;sensor_type;location;lat;lon;timestamp;temperature;humidity
73509;SHT30;61750;55.036;73.312;2023-04-03T00:02:03;-1.62;66.01
73509;SHT30;61750;55.036;73.312;2023-04-03T00:04:33;-1.62;65.87
73509;SHT30;61750;55.036;73.312;2023-04-03T00:07:03;-1.59;65.94
73509;SHT30;61750;55.036;73.312;2023-04-03T00:09:30;-1.62;66.35
73509;SHT30;61750;55.036;73.312;2023-04-03T00:12:05;-1.69;66.64
73509;SHT30;61750;55.036;73.312;2023-04-03T00:14:31;-1.69;66.72
73509;SHT30;61750;55.036;73.312;2023-04-03T00:17:03;-1.68;67.08
73509;SHT30;61750;55.036;73.312;2023-04-03T00:19:29;-1.69;66.91
73509;SHT30;61750;55.036;73.312;2023-04-03T00:22:03;-1.71;67.02
73509;SHT30;61750;55.036;73.312;2023-04-03T00:24:30;-1.81;67.26
73509;SHT30;61750;55.036;73.312;2023-04-03T00:27:06;-1.83;67.61
73509;SHT30;61750;55.036;73.312;2023-04-03T00:29:37;-1.88;67.60
73509;SHT30;61750;55.036;73.312;2023-04-03T00:32:08;-1.91;67.78
73509;SHT30;61750;55.036;73.312;2023-04-03T00:34:34;-1.89;67.87
73509;SHT30;61750;55.036;73.312;2023-04-03T00:37:05;-1.85;67.88
73509;SHT30;61750;55.036;73.312;2023-04-03T00:39:31;-1.78;66.85
73509;SHT30;61750;55.036;73.312;2023-04-03T00:41:57;-1.77;67.04
73509;SHT30;61750;55.036;73.312;2023-04-03T00:47:04;-1.81;67.60
73509;SHT30;61750;55.036;73.312;2023-04-03T00:49:31;-1.83;67.67
73509;SHT30;61750;55.036;73.312;2023-04-03T00:52:08;-1.88;67.98
73509;SHT30;61750;55.036;73.312;2023-04-03T00:54:36;-1.72;66.59
73509;SHT30;61750;55.036;73.312;2023-04-03T00:57:08;-1.67;66.64
73509;SHT30;61750;55.036;73.312;2023-04-03T00:59:36;-1.61;66.45
73509;SHT30;61750;55.036;73.312;2023-04-03T01:02:04;-1.58;66.06
73509;SHT30;61750;55.036;73.312;2023-04-03T01:04:31;-1.54;66.10
73509;SHT30;61750;55.036;73.312;2023-04-03T01:07:04;-1.51;66.56
73509;SHT30;61750;55.036;73.312;2023-04-03T01:09:32;-1.51;66.57
73509;SHT30;61750;55.036;73.312;2023-04-03T01:14:44;-1.47;66.46
73509;SHT30;61750;55.036;73.312;2023-04-03T01:18:12;-1.40;65.87
73509;SHT30;61750;55.036;73.312;2023-04-03T01:20:19;-1.35;66.15
73509;SHT30;61750;55.036;73.312;2023-04-03T01:25:21;-1.35;66.45
73509;SHT30;61750;55.036;73.312;2023-04-03T01:27:49;-1.30;66.56
73509;SHT30;61750;55.036;73.312;2023-04-03T01:30:16;-1.25;66.36
73509;SHT30;61750;55.036;73.312;2023-04-03T01:32:42;-1.21;66.38
73509;SHT30;61750;55.036;73.312;2023-04-03T01:35:09;-1.17;66.27
73509;SHT30;61750;55.036;73.312;2023-04-03T01:37:35;-1.13;65.94
73509;SHT30;61750;55.036;73.312;2023-04-03T01:40:02;-1.04;65.39
73509;SHT30;61750;55.036;73.312;2023-04-03T01:42:29;-1.01;65.43
73509;SHT30;61750;55.036;73.312;2023-04-03T01:44:55;-0.93;65.10
73509;SHT30;61750;55.036;73.312;2023-04-03T01:47:21;-0.84;64.88
73509;SHT30;61750;55.036;73.312;2023-04-03T01:49:47;-0.80;65.15
73509;SHT30;61750;55.036;73.312;2023-04-03T01:52:13;-0.76;64.68
73509;SHT30;61750;55.036;73.312;2023-04-03T01:54:39;-0.69;64.43
73509;SHT30;61750;55.036;73.312;2023-04-03T01:57:05;-0.65;64.51
73509;SHT30;61750;55.036;73.312;2023-04-03T01:59:32;-0.55;63.98
73509;SHT30;61750;55.036;73.312;2023-04-03T02:02:04;-0.49;64.30
73509;SHT30;61750;55.036;73.312;2023-04-03T02:04:30;-0.38;64.46
73509;SHT30;61750;55.036;73.312;2023-04-03T02:07:05;-0.30;64.01
73509;SHT30;61750;55.036;73.312;2023-04-03T02:09:42;-0.23;63.25
73509;SHT30;61750;55.036;73.312;2023-04-03T02:12:09;-0.18;63.06
73509;SHT30;61750;55.036;73.312;2023-04-03T02:14:35;-0.14;62.70
73509;SHT30;61750;55.036;73.312;2023-04-03T02:17:08;-0.05;63.08
73509;SHT30;61750;55.036;73.312;2023-04-03T02:19:35;0.01;62.56
73509;SHT30;61750;55.036;73.312;2023-04-03T02:22:04;0.02;62.08
73509;SHT30;61750;55.036;73.312;2023-04-03T02:24:30;0.03;62.33
73509;SHT30;61750;55.036;73.312;2023-04-03T02:27:03;0.10;62.72
73509;SHT30;61750;55.036;73.312;2023-04-03T02:29:29;0.22;62.22
73509;SHT30;61750;55.036;73.312;2023-04-03T02:32:03;0.35;62.34
73509;SHT30;61750;55.036;73.312;2023-04-03T02:34:42;0.47;62.07
73509;SHT30;61750;55.036;73.312;2023-04-03T02:37:10;0.52;61.17
73509;SHT30;61750;55.036;73.312;2023-04-03T02:39:47;0.63;61.09
73509;SHT30;61750;55.036;73.312;2023-04-03T02:42:14;0.67;61.17
73509;SHT30;61750;55.036;73.312;2023-04-03T02:44:40;0.80;61.23
73509;SHT30;61750;55.036;73.312;2023-04-03T02:47:08;0.87;60.08
73509;SHT30;61750;55.036;73.312;2023-04-03T02:49:34;1.01;60.60
73509;SHT30;61750;55.036;73.312;2023-04-03T02:52:04;1.12;60.08
73509;SHT30;61750;55.036;73.312;2023-04-03T02:54:30;1.22;59.03
73509;SHT30;61750;55.036;73.312;2023-04-03T02:57:07;1.31;59.35
73509;SHT30;61750;55.036;73.312;2023-04-03T02:59:36;1.41;59.32
73509;SHT30;61750;55.036;73.312;2023-04-03T03:02:07;1.51;58.34
73509;SHT30;61750;55.036;73.312;2023-04-03T03:04:33;1.54;58.21
73509;SHT30;61750;55.036;73.312;2023-04-03T03:07:03;1.62;58.79
73509;SHT30;61750;55.036;73.312;2023-04-03T03:09:31;1.80;57.92
73509;SHT30;61750;55.036;73.312;2023-04-03T03:12:05;1.90;57.87
73509;SHT30;61750;55.036;73.312;2023-04-03T03:14:42;2.03;57.40
73509;SHT30;61750;55.036;73.312;2023-04-03T03:17:08;2.11;57.21
73509;SHT30;61750;55.036;73.312;2023-04-03T03:19:34;2.16;56.79
73509;SHT30;61750;55.036;73.312;2023-04-03T03:22:03;2.14;56.61
73509;SHT30;61750;55.036;73.312;2023-04-03T03:24:29;2.23;57.17
73509;SHT30;61750;55.036;73.312;2023-04-03T03:27:03;2.36;57.02
73509;SHT30;61750;55.036;73.312;2023-04-03T03:29:29;2.44;57.00
73509;SHT30;61750;55.036;73.312;2023-04-03T03:32:03;2.57;56.29
73509;SHT30;61750;55.036;73.312;2023-04-03T03:34:30;2.70;56.13
73509;SHT30;61750;55.036;73.312;2023-04-03T03:36:56;2.81;55.56
73509;SHT30;61750;55.036;73.312;2023-04-03T03:39:27;2.99;55.96
73509;SHT30;61750;55.036;73.312;2023-04-03T03:41:53;3.09;54.49
73509;SHT30;61750;55.036;73.312;2023-04-03T03:44:21;3.18;54.98
73509;SHT30;61750;55.036;73.312;2023-04-03T03:47:03;3.37;55.38
73509;SHT30;61750;55.036;73.312;2023-04-03T03:49:31;3.49;53.62
73509;SHT30;61750;55.036;73.312;2023-04-03T03:52:03;3.62;52.84
73509;SHT30;61750;55.036;73.312;2023-04-03T03:54:29;3.70;53.70
73509;SHT30;61750;55.036;73.312;2023-04-03T03:57:03;3.80;52.42
73509;SHT30;61750;55.036;73.312;2023-04-03T03:59:35;3.93;53.92
73509;SHT30;61750;55.036;73.312;2023-04-03T04:02:03;4.08;52.88
73509;SHT30;61750;55.036;73.312;2023-04-03T04:04:34;4.14;53.85
73509;SHT30;61750;55.036;73.312;2023-04-03T04:07:05;4.25;53.33
73509;SHT30;61750;55.036;73.312;2023-04-03T04:12:13;4.35;51.46
73509;SHT30;61750;55.036;73.312;2023-04-03T04:14:39;4.45;52.96
73509;SHT30;61750;55.036;73.312;2023-04-03T04:17:08;4.58;51.14
73509;SHT30;61750;55.036;73.312;2023-04-03T04:19:35;4.68;50.90
73509;SHT30;61750;55.036;73.312;2023-04-03T04:22:14;4.82;52.52
73509;SHT30;61750;55.036;73.312;2023-04-03T04:24:40;4.90;52.09
73509;SHT30;61750;55.036;73.312;2023-04-03T04:27:07;5.06;51.87
73509;SHT30;61750;55.036;73.312;2023-04-03T04:29:34;5.20;51.73
73509;SHT30;61750;55.036;73.312;2023-04-03T04:32:04;5.27;50.39
73509;SHT30;61750;55.036;73.312;2023-04-03T04:34:30;5.39;51.18
73509;SHT30;61750;55.036;73.312;2023-04-03T04:37:03;5.44;51.35
73509;SHT30;61750;55.036;73.312;2023-04-03T04:39:40;5.61;51.52
73509;SHT30;61750;55.036;73.312;2023-04-03T04:42:06;5.68;50.42
73509;SHT30;61750;55.036;73.312;2023-04-03T04:44:40;5.77;51.48
73509;SHT30;61750;55.036;73.312;2023-04-03T04:47:07;5.93;50.36
73509;SHT30;61750;55.036;73.312;2023-04-03T04:49:38;5.95;50.33
73509;SHT30;61750;55.036;73.312;2023-04-03T04:52:06;6.05;50.00
73509;SHT30;61750;55.036;73.312;2023-04-03T04:54:34;6.12;51.28
73509;SHT30;61750;55.036;73.312;2023-04-03T04:57:03;6.38;50.72
73509;SHT30;61750;55.036;73.312;2023-04-03T04:59:30;6.42;50.27
73509;SHT30;61750;55.036;73.312;2023-04-03T05:02:08;6.52;50.03
73509;SHT30;61750;55.036;73.312;2023-04-03T05:04:35;6.54;49.77
73509;SHT30;61750;55.036;73.312;2023-04-03T05:07:07;6.72;49.43
73509;SHT30;61750;55.036;73.312;2023-04-03T05:09:35;6.75;49.23
73509;SHT30;61750;55.036;73.312;2023-04-03T05:12:06;6.76;49.61
73509;SHT30;61750;55.036;73.312;2023-04-03T05:14:39;6.83;49.63
73509;SHT30;61750;55.036;73.312;2023-04-03T05:17:07;6.94;49.53
73509;SHT30;61750;55.036;73.312;2023-04-03T05:19:37;7.05;48.84
73509;SHT30;61750;55.036;73.312;2023-04-03T05:22:04;7.11;48.74
73509;SHT30;61750;55.036;73.312;2023-04-03T05:24:30;7.28;49.09
73509;SHT30;61750;55.036;73.312;2023-04-03T05:27:03;7.41;47.92
73509;SHT30;61750;55.036;73.312;2023-04-03T05:29:32;7.51;48.80
73509;SHT30;61750;55.036;73.312;2023-04-03T05:32:10;7.62;47.65
73509;SHT30;61750;55.036;73.312;2023-04-03T05:34:36;7.52;47.11
73509;SHT30;61750;55.036;73.312;2023-04-03T05:37:04;7.57;47.76
73509;SHT30;61750;55.036;73.312;2023-04-03T05:39:31;7.68;47.52
73509;SHT30;61750;55.036;73.312;2023-04-03T05:41:59;7.83;47.73
73509;SHT30;61750;55.036;73.312;2023-04-03T05:44:26;7.90;48.55
73509;SHT30;61750;55.036;73.312;2023-04-03T05:47:04;8.13;48.00
73509;SHT30;61750;55.036;73.312;2023-04-03T05:49:30;8.10;46.76
73509;SHT30;61750;55.036;73.312;2023-04-03T05:52:03;8.00;47.25
73509;SHT30;61750;55.036;73.312;2023-04-03T05:54:31;8.14;47.93
73509;SHT30;61750;55.036;73.312;2023-04-03T05:57:17;8.33;47.23
73509;SHT30;61750;55.036;73.312;2023-04-03T05:59:44;8.50;47.29
73509;SHT30;61750;55.036;73.312;2023-04-03T06:02:15;8.60;47.46
73509;SHT30;61750;55.036;73.312;2023-04-03T06:04:42;8.49;47.40
73509;SHT30;61750;55.036;73.312;2023-04-03T06:07:14;8.65;46.92
73509;SHT30;61750;55.036;73.312;2023-04-03T06:09:41;8.77;46.94
73509;SHT30;61750;55.036;73.312;2023-04-03T06:12:08;8.67;46.39
73509;SHT30;61750;55.036;73.312;2023-04-03T06:14:34;8.68;47.92
73509;SHT30;61750;55.036;73.312;2023-04-03T06:17:03;8.70;47.27
73509;SHT30;61750;55.036;73.312;2023-04-03T06:19:40;8.85;47.92
73509;SHT30;61750;55.036;73.312;2023-04-03T06:22:06;9.03;48.59
73509;SHT30;61750;55.036;73.312;2023-04-03T06:24:32;9.29;48.02
73509;SHT30;61750;55.036;73.312;2023-04-03T06:27:03;9.32;49.13
73509;SHT30;61750;55.036;73.312;2023-04-03T06:29:39;9.39;46.64
73509;SHT30;61750;55.036;73.312;2023-04-03T06:32:06;9.49;48.01
73509;SHT30;61750;55.036;73.312;2023-04-03T06:34:32;9.69;47.47
73509;SHT30;61750;55.036;73.312;2023-04-03T06:37:03;9.68;46.63
73509;SHT30;61750;55.036;73.312;2023-04-03T06:39:29;9.50;47.42
73509;SHT30;61750;55.036;73.312;2023-04-03T06:41:55;9.65;46.86
73509;SHT30;61750;55.036;73.312;2023-04-03T06:44:36;9.82;46.20
73509;SHT30;61750;55.036;73.312;2023-04-03T06:47:03;9.92;46.17
73509;SHT30;61750;55.036;73.312;2023-04-03T06:49:30;10.00;46.71
73509;SHT30;61750;55.036;73.312;2023-04-03T06:52:03;10.00;44.79
73509;SHT30;61750;55.036;73.312;2023-04-03T06:54:31;9.94;45.00
73509;SHT30;61750;55.036;73.312;2023-04-03T06:57:03;10.23;43.72
73509;SHT30;61750;55.036;73.312;2023-04-03T06:59:29;10.23;46.94
73509;SHT30;61750;55.036;73.312;2023-04-03T07:02:03;10.54;47.27
73509;SHT30;61750;55.036;73.312;2023-04-03T07:04:29;10.55;45.66
73509;SHT30;61750;55.036;73.312;2023-04-03T07:07:03;10.68;46.00
73509;SHT30;61750;55.036;73.312;2023-04-03T07:09:34;10.88;45.38
73509;SHT30;61750;55.036;73.312;2023-04-03T07:12:00;10.78;45.29
73509;SHT30;61750;55.036;73.312;2023-04-03T07:14:26;10.77;44.94
73509;SHT30;61750;55.036;73.312;2023-04-03T07:17:03;10.88;44.44
73509;SHT30;61750;55.036;73.312;2023-04-03T07:19:29;10.88;45.79
73509;SHT30;61750;55.036;73.312;2023-04-03T07:22:03;11.04;45.77
73509;SHT30;61750;55.036;73.312;2023-04-03T07:24:29;11.16;46.18
73509;SHT30;61750;55.036;73.312;2023-04-03T07:27:03;11.31;44.47
73509;SHT30;61750;55.036;73.312;2023-04-03T07:29:33;11.21;44.89
73509;SHT30;61750;55.036;73.312;2023-04-03T07:32:16;11.25;45.17
73509;SHT30;61750;55.036;73.312;2023-04-03T07:34:43;11.23;45.18
73509;SHT30;61750;55.036;73.312;2023-04-03T07:37:09;11.42;44.41
73509;SHT30;61750;55.036;73.312;2023-04-03T07:39:35;11.33;44.42
73509;SHT30;61750;55.036;73.312;2023-04-03T07:42:07;11.59;44.97
73509;SHT30;61750;55.036;73.312;2023-04-03T07:44:33;11.56;44.85
73509;SHT30;61750;55.036;73.312;2023-04-03T07:47:06;11.44;44.20
73509;SHT30;61750;55.036;73.312;2023-04-03T07:49:32;11.25;45.17
73509;SHT30;61750;55.036;73.312;2023-04-03T07:52:04;11.36;45.52
73509;SHT30;61750;55.036;73.312;2023-04-03T07:54:31;11.72;44.77
73509;SHT30;61750;55.036;73.312;2023-04-03T07:57:03;11.80;45.43
73509;SHT30;61750;55.036;73.312;2023-04-03T07:59:30;11.72;46.03
73509;SHT30;61750;55.036;73.312;2023-04-03T08:02:12;11.84;43.38
73509;SHT30;61750;55.036;73.312;2023-04-03T08:04:38;11.73;43.81
73509;SHT30;61750;55.036;73.312;2023-04-03T08:07:05;11.67;43.88
73509;SHT30;61750;55.036;73.312;2023-04-03T08:09:31;11.84;44.36
73509;SHT30;61750;55.036;73.312;2023-04-03T08:11:57;12.07;45.23
73509;SHT30;61750;55.036;73.312;2023-04-03T08:14:24;11.93;44.35
73509;SHT30;61750;55.036;73.312;2023-04-03T08:17:07;11.80;44.76
73509;SHT30;61750;55.036;73.312;2023-04-03T08:19:37;12.00;42.30
73509;SHT30;61750;55.036;73.312;2023-04-03T08:22:09;12.27;44.23
73509;SHT30;61750;55.036;73.312;2023-04-03T08:24:36;12.10;42.94
73509;SHT30;61750;55.036;73.312;2023-04-03T08:27:03;12.20;42.15
73509;SHT30;61750;55.036;73.312;2023-04-03T08:29:29;12.31;42.55
73509;SHT30;61750;55.036;73.312;2023-04-03T08:32:04;12.59;42.64
73509;SHT30;61750;55.036;73.312;2023-04-03T08:34:30;12.77;41.00
73509;SHT30;61750;55.036;73.312;2023-04-03T08:37:06;13.33;42.27
73509;SHT30;61750;55.036;73.312;2023-04-03T08:39:32;13.42;40.59
73509;SHT30;61750;55.036;73.312;2023-04-03T08:41:58;13.73;40.10
73509;SHT30;61750;55.036;73.312;2023-04-03T08:49:39;13.56;38.84
73509;SHT30;61750;55.036;73.312;2023-04-03T08:52:10;14.00;40.94
73509;SHT30;61750;55.036;73.312;2023-04-03T08:54:48;14.16;38.21
73509;SHT30;61750;55.036;73.312;2023-04-03T08:57:17;14.35;38.16
73509;SHT30;61750;55.036;73.312;2023-04-03T08:59:43;14.41;39.97
73509;SHT30;61750;55.036;73.312;2023-04-03T09:02:27;14.42;40.26
73509;SHT30;61750;55.036;73.312;2023-04-03T09:04:54;14.61;39.73
73509;SHT30;61750;55.036;73.312;2023-04-03T09:07:23;14.72;38.27
73509;SHT30;61750;55.036;73.312;2023-04-03T09:09:51;14.49;39.65
73509;SHT30;61750;55.036;73.312;2023-04-03T09:22:52;15.36;38.11
73509;SHT30;61750;55.036;73.312;2023-04-03T09:25:23;15.24;37.04
73509;SHT30;61750;55.036;73.312;2023-04-03T09:27:51;15.43;39.14
73509;SHT30;61750;55.036;73.312;2023-04-03T09:30:19;15.50;38.48
73509;SHT30;61750;55.036;73.312;2023-04-03T09:32:46;15.47;39.06
73509;SHT30;61750;55.036;73.312;2023-04-03T09:35:18;15.56;38.21
73509;SHT30;61750;55.036;73.312;2023-04-03T09:37:46;15.73;36.20
73509;SHT30;61750;55.036;73.312;2023-04-03T09:42:52;16.04;37.57
73509;SHT30;61750;55.036;73.312;2023-04-03T09:45:21;16.35;35.83
73509;SHT30;61750;55.036;73.312;2023-04-03T09:48:07;16.35;37.44
73509;SHT30;61750;55.036;73.312;2023-04-03T09:50:56;16.48;37.76
73509;SHT30;61750;55.036;73.312;2023-04-03T09:53:33;16.36;37.34
73509;SHT30;61750;55.036;73.312;2023-04-03T09:56:00;16.59;35.07
73509;SHT30;61750;55.036;73.312;2023-04-03T09:58:30;16.56;36.23
73509;SHT30;61750;55.036;73.312;2023-04-03T10:01:01;16.35;35.31
73509;SHT30;61750;55.036;73.312;2023-04-03T10:05:54;17.00;35.07
73509;SHT30;61750;55.036;73.312;2023-04-03T10:08:22;17.48;35.60
73509;SHT30;61750;55.036;73.312;2023-04-03T10:11:05;17.50;36.27
73509;SHT30;61750;55.036;73.312;2023-04-03T10:13:49;17.36;36.42
73509;SHT30;61750;55.036;73.312;2023-04-03T10:16:16;17.27;35.81
73509;SHT30;61750;55.036;73.312;2023-04-03T10:18:49;17.33;36.49
73509;SHT30;61750;55.036;73.312;2023-04-03T10:21:26;17.54;36.80
73509;SHT30;61750;55.036;73.312;2023-04-03T10:23:58;18.04;35.83
73509;SHT30;61750;55.036;73.312;2023-04-03T10:27:23;18.80;34.78
73509;SHT30;61750;55.036;73.312;2023-04-03T10:32:45;19.02;34.08
73509;SHT30;61750;55.036;73.312;2023-04-03T10:37:46;19.21;31.87
73509;SHT30;61750;55.036;73.312;2023-04-03T10:40:21;18.92;33.00
73509;SHT30;61750;55.036;73.312;2023-04-03T10:42:50;19.16;32.16
73509;SHT30;61750;55.036;73.312;2023-04-03T10:45:32;18.09;33.39
73509;SHT30;61750;55.036;73.312;2023-04-03T10:50:52;16.47;35.86
73509;SHT30;61750;55.036;73.312;2023-04-03T10:56:13;18.15;34.41
73509;SHT30;61750;55.036;73.312;2023-04-03T10:58:44;18.46;33.78
73509;SHT30;61750;55.036;73.312;2023-04-03T11:01:16;18.49;34.69
73509;SHT30;61750;55.036;73.312;2023-04-03T11:03:49;18.72;33.67
73509;SHT30;61750;55.036;73.312;2023-04-03T11:06:17;18.97;33.94
73509;SHT30;61750;55.036;73.312;2023-04-03T11:08:46;19.16;33.25
73509;SHT30;61750;55.036;73.312;2023-04-03T11:11:19;19.32;33.31
73509;SHT30;61750;55.036;73.312;2023-04-03T11:20:03;19.27;33.55
73509;SHT30;61750;55.036;73.312;2023-04-03T11:25:30;19.67;30.94
73509;SHT30;61750;55.036;73.312;2023-04-03T11:28:01;20.11;31.23
73509;SHT30;61750;55.036;73.312;2023-04-03T11:30:48;20.02;31.42
73509;SHT30;61750;55.036;73.312;2023-04-03T11:36:22;20.15;30.99
73509;SHT30;61750;55.036;73.312;2023-04-03T11:38:46;20.02;31.81
73509;SHT30;61750;55.036;73.312;2023-04-03T11:41:13;19.70;32.09
73509;SHT30;61750;55.036;73.312;2023-04-03T11:44:02;19.85;31.97
73509;SHT30;61750;55.036;73.312;2023-04-03T11:47:06;20.36;31.03
73509;SHT30;61750;55.036;73.312;2023-04-03T12:22:05;19.51;32.58
73509;SHT30;61750;55.036;73.312;2023-04-03T12:24:36;19.16;33.15
73509;SHT30;61750;55.036;73.312;2023-04-03T12:45:23;17.90;34.43
73509;SHT30;61750;55.036;73.312;2023-04-03T12:47:50;17.91;34.74
73509;SHT30;61750;55.036;73.312;2023-04-03T12:50:24;17.68;34.59
73509;SHT30;61750;55.036;73.312;2023-04-03T12:52:52;17.57;35.10
73509;SHT30;61750;55.036;73.312;2023-04-03T12:55:25;17.61;35.02
73509;SHT30;61750;55.036;73.312;2023-04-03T12:57:52;17.48;35.34
73509;SHT30;61750;55.036;73.312;2023-04-03T13:00:30;17.24;35.66
73509;SHT30;61750;55.036;73.312;2023-04-03T13:02:59;17.00;35.97
73509;SHT30;61750;55.036;73.312;2023-04-03T13:05:25;16.61;36.50
73509;SHT30;61750;55.036;73.312;2023-04-03T13:08:03;16.21;36.85
73509;SHT30;61750;55.036;73.312;2023-04-03T13:10:30;15.56;37.94
73509;SHT30;61750;55.036;73.312;2023-04-03T13:12:58;14.52;39.95
73509;SHT30;61750;55.036;73.312;2023-04-03T13:17:52;12.82;43.15
73509;SHT30;61750;55.036;73.312;2023-04-03T13:20:29;11.83;45.22
73509;SHT30;61750;55.036;73.312;2023-04-03T13:25:29;10.57;48.21
73509;SHT30;61750;55.036;73.312;2023-04-03T13:28:01;10.02;49.60
73509;SHT30;61750;55.036;73.312;2023-04-03T13:30:39;9.56;50.78
73509;SHT30;61750;55.036;73.312;2023-04-03T13:33:18;9.24;51.62
73509;SHT30;61750;55.036;73.312;2023-04-03T13:35:47;8.88;52.59
73509;SHT30;61750;55.036;73.312;2023-04-03T13:40:50;8.37;54.28
73509;SHT30;61750;55.036;73.312;2023-04-03T13:43:21;8.13;55.09
73509;SHT30;61750;55.036;73.312;2023-04-03T13:48:22;7.65;56.57
73509;SHT30;61750;55.036;73.312;2023-04-03T13:51:05;7.40;57.44
73509;SHT30;61750;55.036;73.312;2023-04-03T13:53:34;7.24;58.20
73509;SHT30;61750;55.036;73.312;2023-04-03T13:56:08;7.00;59.08
73509;SHT30;61750;55.036;73.312;2023-04-03T13:58:39;6.83;59.95
73509;SHT30;61750;55.036;73.312;2023-04-03T14:01:11;6.66;60.54
73509;SHT30;61750;55.036;73.312;2023-04-03T14:06:21;6.28;62.54
73509;SHT30;61750;55.036;73.312;2023-04-03T14:08:52;6.15;63.40
73509;SHT30;61750;55.036;73.312;2023-04-03T14:11:36;5.93;64.21
73509;SHT30;61750;55.036;73.312;2023-04-03T14:14:14;5.75;65.26
73509;SHT30;61750;55.036;73.312;2023-04-03T14:17:13;5.53;65.90
73509;SHT30;61750;55.036;73.312;2023-04-03T14:19:39;5.31;66.81
73509;SHT30;61750;55.036;73.312;2023-04-03T14:22:27;5.22;67.68
73509;SHT30;61750;55.036;73.312;2023-04-03T14:24:54;5.05;68.39
73509;SHT30;61750;55.036;73.312;2023-04-03T14:27:21;4.96;68.81
73509;SHT30;61750;55.036;73.312;2023-04-03T14:29:58;4.78;69.09
73509;SHT30;61750;55.036;73.312;2023-04-03T14:32:35;4.56;69.43
73509;SHT30;61750;55.036;73.312;2023-04-03T14:35:01;4.38;69.96
73509;SHT30;61750;55.036;73.312;2023-04-03T14:37:32;4.20;70.64
73509;SHT30;61750;55.036;73.312;2023-04-03T14:39:59;4.01;71.08
73509;SHT30;61750;55.036;73.312;2023-04-03T14:42:32;3.89;71.68
73509;SHT30;61750;55.036;73.312;2023-04-03T14:45:00;3.83;72.44
73509;SHT30;61750;55.036;73.312;2023-04-03T14:47:27;3.84;72.74
73509;SHT30;61750;55.036;73.312;2023-04-03T14:50:04;3.84;73.26
73509;SHT30;61750;55.036;73.312;2023-04-03T14:52:34;3.76;73.15
73509;SHT30;61750;55.036;73.312;2023-04-03T14:55:00;3.67;73.50
73509;SHT30;61750;55.036;73.312;2023-04-03T14:57:27;3.63;74.00
73509;SHT30;61750;55.036;73.312;2023-04-03T14:59:53;3.64;74.60
73509;SHT30;61750;55.036;73.312;2023-04-03T15:05:00;3.62;74.05
73509;SHT30;61750;55.036;73.312;2023-04-03T15:07:29;3.84;74.01
73509;SHT30;61750;55.036;73.312;2023-04-03T15:09:56;3.98;73.24
73509;SHT30;61750;55.036;73.312;2023-04-03T15:12:23;3.98;72.23
73509;SHT30;61750;55.036;73.312;2023-04-03T15:14:49;4.00;71.98
73509;SHT30;61750;55.036;73.312;2023-04-03T15:17:16;4.03;71.41
73509;SHT30;61750;55.036;73.312;2023-04-03T15:19:42;4.05;71.71
73509;SHT30;61750;55.036;73.312;2023-04-03T15:22:18;4.10;71.96
73509;SHT30;61750;55.036;73.312;2023-04-03T15:24:45;4.14;72.16
73509;SHT30;61750;55.036;73.312;2023-04-03T15:27:11;4.14;71.90
73509;SHT30;61750;55.036;73.312;2023-04-03T15:29:38;4.05;72.16
73509;SHT30;61750;55.036;73.312;2023-04-03T15:32:04;4.08;72.40
73509;SHT30;61750;55.036;73.312;2023-04-03T15:34:31;4.04;72.13
73509;SHT30;61750;55.036;73.312;2023-04-03T15:37:03;4.05;72.38
73509;SHT30;61750;55.036;73.312;2023-04-03T15:39:29;3.93;72.25
73509;SHT30;61750;55.036;73.312;2023-04-03T15:42:00;3.80;72.54
73509;SHT30;61750;55.036;73.312;2023-04-03T15:44:32;3.64;72.87
73509;SHT30;61750;55.036;73.312;2023-04-03T15:47:03;3.53;73.12
73509;SHT30;61750;55.036;73.312;2023-04-03T15:49:29;3.43;73.17
73509;SHT30;61750;55.036;73.312;2023-04-03T15:52:03;3.26;73.24
73509;SHT30;61750;55.036;73.312;2023-04-03T15:54:29;3.09;73.65
73509;SHT30;61750;55.036;73.312;2023-04-03T15:57:03;2.89;74.15
73509;SHT30;61750;55.036;73.312;2023-04-03T15:59:29;2.84;74.78
73509;SHT30;61750;55.036;73.312;2023-04-03T16:02:04;2.71;74.72
73509;SHT30;61750;55.036;73.312;2023-04-03T16:04:30;2.55;74.92
73509;SHT30;61750;55.036;73.312;2023-04-03T16:07:03;2.45;75.28
73509;SHT30;61750;55.036;73.312;2023-04-03T16:09:30;2.41;75.66
73509;SHT30;61750;55.036;73.312;2023-04-03T16:12:06;2.34;76.00
73509;SHT30;61750;55.036;73.312;2023-04-03T16:14:42;2.17;75.77
73509;SHT30;61750;55.036;73.312;2023-04-03T16:17:08;2.33;75.90
73509;SHT30;61750;55.036;73.312;2023-04-03T16:19:34;2.23;75.65
73509;SHT30;61750;55.036;73.312;2023-04-03T16:22:03;2.44;76.01
73509;SHT30;61750;55.036;73.312;2023-04-03T16:24:29;2.58;73.55
73509;SHT30;61750;55.036;73.312;2023-04-03T16:27:03;2.55;73.34
73509;SHT30;61750;55.036;73.312;2023-04-03T16:29:29;2.55;73.28
73509;SHT30;61750;55.036;73.312;2023-04-03T16:32:05;2.68;72.83
73509;SHT30;61750;55.036;73.312;2023-04-03T16:34:41;2.80;72.12
73509;SHT30;61750;55.036;73.312;2023-04-03T16:37:17;3.01;71.35
73509;SHT30;61750;55.036;73.312;2023-04-03T16:39:54;3.01;70.80
73509;SHT30;61750;55.036;73.312;2023-04-03T16:42:20;3.01;70.62
73509;SHT30;61750;55.036;73.312;2023-04-03T16:44:46;2.98;70.66
73509;SHT30;61750;55.036;73.312;2023-04-03T16:47:12;3.05;70.44
73509;SHT30;61750;55.036;73.312;2023-04-03T16:49:52;3.27;69.82
73509;SHT30;61750;55.036;73.312;2023-04-03T16:52:18;3.42;68.83
73509;SHT30;61750;55.036;73.312;2023-04-03T16:54:44;3.46;68.76
73509;SHT30;61750;55.036;73.312;2023-04-03T16:57:10;3.50;68.63
73509;SHT30;61750;55.036;73.312;2023-04-03T16:59:36;3.62;68.14
73509;SHT30;61750;55.036;73.312;2023-04-03T17:02:03;3.69;67.79
73509;SHT30;61750;55.036;73.312;2023-04-03T17:04:29;3.59;67.77
73509;SHT30;61750;55.036;73.312;2023-04-03T17:07:05;3.43;68.16
73509;SHT30;61750;55.036;73.312;2023-04-03T17:09:36;3.35;68.42
73509;SHT30;61750;55.036;73.312;2023-04-03T17:12:03;3.27;68.54
73509;SHT30;61750;55.036;73.312;2023-04-03T17:14:39;3.27;68.08
73509;SHT30;61750;55.036;73.312;2023-04-03T17:17:06;3.23;68.18
73509;SHT30;61750;55.036;73.312;2023-04-03T17:19:33;3.12;68.60
73509;SHT30;61750;55.036;73.312;2023-04-03T17:22:06;3.02;68.93
73509;SHT30;61750;55.036;73.312;2023-04-03T17:24:33;2.95;69.19
73509;SHT30;61750;55.036;73.312;2023-04-03T17:27:03;2.88;69.42
73509;SHT30;61750;55.036;73.312;2023-04-03T17:29:34;2.88;69.59
73509;SHT30;61750;55.036;73.312;2023-04-03T17:32:03;2.84;69.44
73509;SHT30;61750;55.036;73.312;2023-04-03T17:34:29;2.74;69.74
73509;SHT30;61750;55.036;73.312;2023-04-03T17:37:05;2.54;70.18
73509;SHT30;61750;55.036;73.312;2023-04-03T17:39:41;2.41;70.80
73509;SHT30;61750;55.036;73.312;2023-04-03T17:42:11;2.37;71.03
73509;SHT30;61750;55.036;73.312;2023-04-03T17:44:37;2.29;71.31
73509;SHT30;61750;55.036;73.312;2023-04-03T17:47:08;2.19;71.56